WXM80 ListenWXM80 Stop

You find our weather info also at:

UK Metoffice

WeatherCloud

Weather Underground

Northeastern Weather Network

AWEKAS

Citizen Weather Observer Program (CWOP)

HAMweather, WeatherForYou, PWS Weather


Weather Underground History page Text

Daily Summary for May 23, 2017 Units:  Both    English   Metric
« Previous Day
Next Day »
Daily Weekly Monthly Yearly Custom
  High: Low: Average:
Temperature: 71.2 °F /  21.8 °C 54.8 °F /  12.7 °C 62.3 °F /  16.8 °C
Dew Point: 57.5 °F /  14.2 °C 51.2 °F /  10.7 °C 55.4 °F /  13 °C
Humidity: 97 % 55 % 80 %
Wind Speed: 4.3 mph /  6.9 km/h - 0.7 mph /  1.1 km/h
Wind Gust: 9.0 mph /  14.5 km/h - -
Wind:- - SSE
Pressure: 29.93 in /  1013.4 hPa 29.76 in /  1007.7 hPa -
Precipitation: 0.00 in /  0 mm    
Historical Graphs
 
 
Tabular Data for May 23, 2017
Time Temperature Dew Point Pressure Wind Wind Speed Wind Gust Humidity Rainfall Rate (Hourly)
00:00 58.2 °F /  14.6 °C 57.4 °F /  14.1 °C 29.91 in /  1012.8 hPa Calm     97 % 0.00 in /  0 mm
00:05 58.1 °F /  14.5 °C 57.3 °F /  14.1 °C 29.91 in /  1012.8 hPa Calm     97 % 0.00 in /  0 mm
00:10 58.1 °F /  14.5 °C 57.3 °F /  14.1 °C 29.91 in /  1012.8 hPa Calm   1.2 mph /  1.9 km/h 97 % 0.00 in /  0 mm
00:15 58.1 °F /  14.5 °C 57.3 °F /  14.1 °C 29.91 in /  1012.8 hPa Calm     97 % 0.00 in /  0 mm
00:20 58.1 °F /  14.5 °C 57.3 °F /  14.1 °C 29.91 in /  1012.8 hPa North 0.1 mph /  0.2 km/h 2.3 mph /  3.7 km/h 97 % 0.00 in /  0 mm
00:25 58.1 °F /  14.5 °C 57.3 °F /  14.1 °C 29.91 in /  1012.8 hPa Calm   1.2 mph /  1.9 km/h 97 % 0.00 in /  0 mm
00:30 58.1 °F /  14.5 °C 57.3 °F /  14.1 °C 29.91 in /  1012.8 hPa North 0.1 mph /  0.2 km/h   97 % 0.00 in /  0 mm
00:35 58.1 °F /  14.5 °C 57.3 °F /  14.1 °C 29.91 in /  1012.8 hPa North 0.4 mph /  0.6 km/h 2.3 mph /  3.7 km/h 97 % 0.00 in /  0 mm
00:40 58.1 °F /  14.5 °C 57.3 °F /  14.1 °C 29.91 in /  1012.8 hPa North 0.2 mph /  0.3 km/h 1.2 mph /  1.9 km/h 97 % 0.00 in /  0 mm
00:45 58.1 °F /  14.5 °C 57.3 °F /  14.1 °C 29.90 in /  1012.4 hPa Calm     97 % 0.00 in /  0 mm
00:50 58.1 °F /  14.5 °C 57.3 °F /  14.1 °C 29.90 in /  1012.4 hPa North 0.9 mph /  1.4 km/h 3.5 mph /  5.6 km/h 97 % 0.00 in /  0 mm
00:55 58.0 °F /  14.4 °C 57.2 °F /  14 °C 29.91 in /  1012.8 hPa Calm     97 % 0.00 in /  0 mm
01:01 58.0 °F /  14.4 °C 57.2 °F /  14 °C 29.91 in /  1012.8 hPa Calm     97 % 0.00 in /  0 mm
01:06 58.0 °F /  14.4 °C 57.2 °F /  14 °C 29.91 in /  1012.8 hPa North 0.5 mph /  0.8 km/h 1.2 mph /  1.9 km/h 97 % 0.00 in /  0 mm
01:11 58.0 °F /  14.4 °C 57.2 °F /  14 °C 29.91 in /  1012.8 hPa Calm   1.0 mph /  1.6 km/h 97 % 0.00 in /  0 mm
01:16 58.0 °F /  14.4 °C 57.2 °F /  14 °C 29.91 in /  1012.8 hPa North 1.0 mph /  1.6 km/h 1.0 mph /  1.6 km/h 97 % 0.00 in /  0 mm
01:21 58.0 °F /  14.4 °C 57.2 °F /  14 °C 29.91 in /  1012.8 hPa WNW 0.4 mph /  0.6 km/h 3.5 mph /  5.6 km/h 97 % 0.00 in /  0 mm
01:26 58.0 °F /  14.4 °C 57.2 °F /  14 °C 29.91 in /  1012.8 hPa WNW 2.0 mph /  3.2 km/h 4.0 mph /  6.4 km/h 97 % 0.00 in /  0 mm
01:31 58.0 °F /  14.4 °C 57.2 °F /  14 °C 29.91 in /  1012.8 hPa WNW 0.2 mph /  0.3 km/h 2.3 mph /  3.7 km/h 97 % 0.00 in /  0 mm
01:36 58.0 °F /  14.4 °C 57.2 °F /  14 °C 29.91 in /  1012.8 hPa WNW 3.5 mph /  5.6 km/h 7.0 mph /  11.3 km/h 97 % 0.00 in /  0 mm
01:41 57.9 °F /  14.4 °C 57.1 °F /  13.9 °C 29.91 in /  1012.8 hPa NW 2.5 mph /  4 km/h 4.6 mph /  7.4 km/h 97 % 0.00 in /  0 mm
01:46 57.9 °F /  14.4 °C 57.1 °F /  13.9 °C 29.91 in /  1012.8 hPa NW 2.0 mph /  3.2 km/h 8.0 mph /  12.9 km/h 97 % 0.00 in /  0 mm
01:51 57.9 °F /  14.4 °C 57.1 °F /  13.9 °C 29.91 in /  1012.8 hPa Calm   3.0 mph /  4.8 km/h 97 % 0.00 in /  0 mm
01:56 57.9 °F /  14.4 °C 57.1 °F /  13.9 °C 29.91 in /  1012.8 hPa NNW 1.0 mph /  1.6 km/h 9.0 mph /  14.5 km/h 97 % 0.00 in /  0 mm
02:01 57.8 °F /  14.3 °C 57.0 °F /  13.9 °C 29.91 in /  1012.8 hPa NW 1.1 mph /  1.8 km/h 3.5 mph /  5.6 km/h 97 % 0.00 in /  0 mm
02:06 57.8 °F /  14.3 °C 57.0 °F /  13.9 °C 29.91 in /  1012.8 hPa NW 3.4 mph /  5.5 km/h 6.9 mph /  11.1 km/h 97 % 0.00 in /  0 mm
02:11 57.7 °F /  14.3 °C 56.9 °F /  13.8 °C 29.91 in /  1012.8 hPa WNW 1.3 mph /  2.1 km/h 3.5 mph /  5.6 km/h 97 % 0.00 in /  0 mm
02:16 57.7 °F /  14.3 °C 56.9 °F /  13.8 °C 29.91 in /  1012.8 hPa WNW 2.1 mph /  3.4 km/h 3.5 mph /  5.6 km/h 97 % 0.00 in /  0 mm
02:21 57.7 °F /  14.3 °C 56.9 °F /  13.8 °C 29.91 in /  1012.8 hPa NW 1.3 mph /  2.1 km/h 2.3 mph /  3.7 km/h 97 % 0.00 in /  0 mm
02:26 57.6 °F /  14.2 °C 56.8 °F /  13.8 °C 29.90 in /  1012.4 hPa WNW 1.2 mph /  1.9 km/h 4.6 mph /  7.4 km/h 97 % 0.00 in /  0 mm
02:31 57.6 °F /  14.2 °C 56.8 °F /  13.8 °C 29.91 in /  1012.8 hPa WNW 0.3 mph /  0.5 km/h 1.0 mph /  1.6 km/h 97 % 0.00 in /  0 mm
02:36 57.6 °F /  14.2 °C 56.8 °F /  13.8 °C 29.90 in /  1012.4 hPa NW 0.5 mph /  0.8 km/h 3.5 mph /  5.6 km/h 97 % 0.00 in /  0 mm
02:41 57.5 °F /  14.2 °C 56.7 °F /  13.7 °C 29.90 in /  1012.4 hPa Calm   3.5 mph /  5.6 km/h 97 % 0.00 in /  0 mm
02:46 57.5 °F /  14.2 °C 56.7 °F /  13.7 °C 29.90 in /  1012.4 hPa WNW 2.0 mph /  3.2 km/h 4.0 mph /  6.4 km/h 97 % 0.00 in /  0 mm
02:51 57.5 °F /  14.2 °C 56.7 °F /  13.7 °C 29.89 in /  1012.1 hPa Calm   3.0 mph /  4.8 km/h 97 % 0.00 in /  0 mm
02:56 57.5 °F /  14.2 °C 56.7 °F /  13.7 °C 29.89 in /  1012.1 hPa NNW 0.7 mph /  1.1 km/h 2.3 mph /  3.7 km/h 97 % 0.00 in /  0 mm
03:01 57.5 °F /  14.2 °C 56.7 °F /  13.7 °C 29.89 in /  1012.1 hPa WNW 0.2 mph /  0.3 km/h 1.2 mph /  1.9 km/h 97 % 0.00 in /  0 mm
03:06 57.5 °F /  14.2 °C 56.7 °F /  13.7 °C 29.89 in /  1012.1 hPa WNW 0.2 mph /  0.3 km/h 1.2 mph /  1.9 km/h 97 % 0.00 in /  0 mm
03:11 57.5 °F /  14.2 °C 56.7 °F /  13.7 °C 29.89 in /  1012.1 hPa WNW 0.5 mph /  0.8 km/h 2.3 mph /  3.7 km/h 97 % 0.00 in /  0 mm
03:16 57.4 °F /  14.1 °C 56.6 °F /  13.7 °C 29.89 in /  1012.1 hPa North 0.6 mph /  1 km/h 3.5 mph /  5.6 km/h 97 % 0.00 in /  0 mm
03:21 57.4 °F /  14.1 °C 56.6 °F /  13.7 °C 29.90 in /  1012.4 hPa Calm     97 % 0.00 in /  0 mm
03:26 57.4 °F /  14.1 °C 56.6 °F /  13.7 °C 29.90 in /  1012.4 hPa North 0.8 mph /  1.3 km/h 2.3 mph /  3.7 km/h 97 % 0.00 in /  0 mm
03:31 57.4 °F /  14.1 °C 56.6 °F /  13.7 °C 29.89 in /  1012.1 hPa North 0.1 mph /  0.2 km/h 1.2 mph /  1.9 km/h 97 % 0.00 in /  0 mm
03:36 57.4 °F /  14.1 °C 56.6 °F /  13.7 °C 29.89 in /  1012.1 hPa Calm     97 % 0.00 in /  0 mm
03:41 57.4 °F /  14.1 °C 56.6 °F /  13.7 °C 29.90 in /  1012.4 hPa Calm     97 % 0.00 in /  0 mm
03:46 57.4 °F /  14.1 °C 56.6 °F /  13.7 °C 29.90 in /  1012.4 hPa Calm   1.2 mph /  1.9 km/h 97 % 0.00 in /  0 mm
03:51 57.4 °F /  14.1 °C 56.6 °F /  13.7 °C 29.90 in /  1012.4 hPa NNW 1.9 mph /  3.1 km/h 3.5 mph /  5.6 km/h 97 % 0.00 in /  0 mm
03:56 57.4 °F /  14.1 °C 56.6 °F /  13.7 °C 29.90 in /  1012.4 hPa NNE 2.1 mph /  3.4 km/h 3.5 mph /  5.6 km/h 97 % 0.00 in /  0 mm
04:01 57.4 °F /  14.1 °C 56.6 °F /  13.7 °C 29.90 in /  1012.4 hPa NNE 4.1 mph /  6.6 km/h 8.0 mph /  12.9 km/h 97 % 0.00 in /  0 mm
04:07 57.4 °F /  14.1 °C 56.6 °F /  13.7 °C 29.90 in /  1012.4 hPa NE 2.3 mph /  3.7 km/h 5.8 mph /  9.3 km/h 97 % 0.00 in /  0 mm
04:12 57.4 °F /  14.1 °C 56.6 °F /  13.7 °C 29.90 in /  1012.4 hPa North 1.6 mph /  2.6 km/h 5.8 mph /  9.3 km/h 97 % 0.00 in /  0 mm
04:17 57.4 °F /  14.1 °C 56.6 °F /  13.7 °C 29.89 in /  1012.1 hPa Calm   2.3 mph /  3.7 km/h 97 % 0.00 in /  0 mm
04:22 57.3 °F /  14.1 °C 56.5 °F /  13.6 °C 29.89 in /  1012.1 hPa NNE 2.2 mph /  3.5 km/h 3.5 mph /  5.6 km/h 97 % 0.00 in /  0 mm
04:27 57.2 °F /  14 °C 56.4 °F /  13.6 °C 29.89 in /  1012.1 hPa NNE 1.7 mph /  2.7 km/h 4.0 mph /  6.4 km/h 97 % 0.00 in /  0 mm
04:32 57.1 °F /  13.9 °C 56.3 °F /  13.5 °C 29.89 in /  1012.1 hPa NE 2.0 mph /  3.2 km/h 4.0 mph /  6.4 km/h 97 % 0.00 in /  0 mm
04:37 57.0 °F /  13.9 °C 56.2 °F /  13.4 °C 29.90 in /  1012.4 hPa North 1.6 mph /  2.6 km/h 4.6 mph /  7.4 km/h 97 % 0.00 in /  0 mm
04:42 56.9 °F /  13.8 °C 56.1 °F /  13.4 °C 29.90 in /  1012.4 hPa NNE 0.8 mph /  1.3 km/h 3.0 mph /  4.8 km/h 97 % 0.00 in /  0 mm
04:47 56.8 °F /  13.8 °C 56.0 °F /  13.3 °C 29.90 in /  1012.4 hPa NNE 2.0 mph /  3.2 km/h 4.0 mph /  6.4 km/h 97 % 0.00 in /  0 mm
04:52 56.7 °F /  13.7 °C 55.9 °F /  13.3 °C 29.90 in /  1012.4 hPa North 0.3 mph /  0.5 km/h 3.0 mph /  4.8 km/h 97 % 0.00 in /  0 mm
04:57 56.6 °F /  13.7 °C 55.8 °F /  13.2 °C 29.90 in /  1012.4 hPa NNE 0.7 mph /  1.1 km/h 2.3 mph /  3.7 km/h 97 % 0.00 in /  0 mm
05:02 56.6 °F /  13.7 °C 55.8 °F /  13.2 °C 29.90 in /  1012.4 hPa Calm   1.2 mph /  1.9 km/h 97 % 0.00 in /  0 mm
05:07 56.4 °F /  13.6 °C 55.6 °F /  13.1 °C 29.90 in /  1012.4 hPa North 2.2 mph /  3.5 km/h 3.5 mph /  5.6 km/h 97 % 0.00 in /  0 mm
05:12 56.3 °F /  13.5 °C 55.5 °F /  13.1 °C 29.90 in /  1012.4 hPa North 2.2 mph /  3.5 km/h 3.5 mph /  5.6 km/h 97 % 0.00 in /  0 mm
05:17 56.2 °F /  13.4 °C 55.4 °F /  13 °C 29.90 in /  1012.4 hPa NNE 1.0 mph /  1.6 km/h 3.5 mph /  5.6 km/h 97 % 0.00 in /  0 mm
05:22 56.1 °F /  13.4 °C 55.3 °F /  12.9 °C 29.89 in /  1012.1 hPa NE 2.6 mph /  4.2 km/h 4.6 mph /  7.4 km/h 97 % 0.00 in /  0 mm
05:27 56.0 °F /  13.3 °C 55.2 °F /  12.9 °C 29.90 in /  1012.4 hPa NNE 3.0 mph /  4.8 km/h 5.0 mph /  8 km/h 97 % 0.00 in /  0 mm
05:32 55.9 °F /  13.3 °C 55.1 °F /  12.8 °C 29.90 in /  1012.4 hPa NNE 0.3 mph /  0.5 km/h 3.5 mph /  5.6 km/h 97 % 0.00 in /  0 mm
05:37 55.8 °F /  13.2 °C 55.0 °F /  12.8 °C 29.90 in /  1012.4 hPa NNE 2.2 mph /  3.5 km/h 3.5 mph /  5.6 km/h 97 % 0.00 in /  0 mm
05:42 55.7 °F /  13.2 °C 54.9 °F /  12.7 °C 29.91 in /  1012.8 hPa NNE 3.8 mph /  6.1 km/h 7.0 mph /  11.3 km/h 97 % 0.00 in /  0 mm
05:47 55.4 °F /  13 °C 54.3 °F /  12.4 °C 29.91 in /  1012.8 hPa North 3.6 mph /  5.8 km/h 8.1 mph /  13 km/h 96 % 0.00 in /  0 mm
05:52 55.3 °F /  12.9 °C 54.2 °F /  12.3 °C 29.91 in /  1012.8 hPa NNE 2.9 mph /  4.7 km/h 5.8 mph /  9.3 km/h 96 % 0.00 in /  0 mm
05:57 55.1 °F /  12.8 °C 54.0 °F /  12.2 °C 29.91 in /  1012.8 hPa North 4.2 mph /  6.8 km/h 5.0 mph /  8 km/h 96 % 0.00 in /  0 mm
06:03 55.0 °F /  12.8 °C 53.9 °F /  12.2 °C 29.92 in /  1013.1 hPa North 2.8 mph /  4.5 km/h 6.9 mph /  11.1 km/h 96 % 0.00 in /  0 mm
06:08 54.9 °F /  12.7 °C 53.8 °F /  12.1 °C 29.92 in /  1013.1 hPa North 2.0 mph /  3.2 km/h 3.5 mph /  5.6 km/h 96 % 0.00 in /  0 mm
06:13 54.8 °F /  12.7 °C 53.7 °F /  12.1 °C 29.91 in /  1012.8 hPa NNE 4.3 mph /  6.9 km/h 6.9 mph /  11.1 km/h 96 % 0.00 in /  0 mm
06:18 54.8 °F /  12.7 °C 53.7 °F /  12.1 °C 29.91 in /  1012.8 hPa NNE 1.5 mph /  2.4 km/h 4.6 mph /  7.4 km/h 96 % 0.00 in /  0 mm
06:23 54.9 °F /  12.7 °C 53.8 °F /  12.1 °C 29.91 in /  1012.8 hPa NNE 1.5 mph /  2.4 km/h 3.5 mph /  5.6 km/h 96 % 0.00 in /  0 mm
06:28 55.0 °F /  12.8 °C 53.9 °F /  12.2 °C 29.91 in /  1012.8 hPa NNE 1.6 mph /  2.6 km/h 3.5 mph /  5.6 km/h 96 % 0.00 in /  0 mm
06:33 55.2 °F /  12.9 °C 54.1 °F /  12.3 °C 29.92 in /  1013.1 hPa NNE 2.8 mph /  4.5 km/h 3.5 mph /  5.6 km/h 96 % 0.00 in /  0 mm
06:38 55.5 °F /  13.1 °C 54.7 °F /  12.6 °C 29.92 in /  1013.1 hPa NNE 0.1 mph /  0.2 km/h 2.3 mph /  3.7 km/h 97 % 0.00 in /  0 mm
06:43 55.8 °F /  13.2 °C 55.0 °F /  12.8 °C 29.92 in /  1013.1 hPa NNE 1.4 mph /  2.3 km/h 2.3 mph /  3.7 km/h 97 % 0.00 in /  0 mm
06:48 56.2 °F /  13.4 °C 55.4 °F /  13 °C 29.92 in /  1013.1 hPa NNE 1.0 mph /  1.6 km/h 3.5 mph /  5.6 km/h 97 % 0.00 in /  0 mm
06:53 56.6 °F /  13.7 °C 55.8 °F /  13.2 °C 29.92 in /  1013.1 hPa NE 1.0 mph /  1.6 km/h 2.3 mph /  3.7 km/h 97 % 0.00 in /  0 mm
06:58 57.1 °F /  13.9 °C 56.3 °F /  13.5 °C 29.93 in /  1013.4 hPa NE 0.5 mph /  0.8 km/h 3.5 mph /  5.6 km/h 97 % 0.00 in /  0 mm
07:03 57.4 °F /  14.1 °C 56.6 °F /  13.7 °C 29.93 in /  1013.4 hPa ENE 1.9 mph /  3.1 km/h 3.0 mph /  4.8 km/h 97 % 0.00 in /  0 mm
07:08 57.8 °F /  14.3 °C 57.0 °F /  13.9 °C 29.92 in /  1013.1 hPa NE 1.1 mph /  1.8 km/h 2.3 mph /  3.7 km/h 97 % 0.00 in /  0 mm
07:13 58.0 °F /  14.4 °C 57.2 °F /  14 °C 29.92 in /  1013.1 hPa NNE 1.0 mph /  1.6 km/h 3.5 mph /  5.6 km/h 97 % 0.00 in /  0 mm
07:18 58.3 °F /  14.6 °C 57.5 °F /  14.2 °C 29.92 in /  1013.1 hPa NE 0.2 mph /  0.3 km/h 1.2 mph /  1.9 km/h 97 % 0.00 in /  0 mm
07:23 58.4 °F /  14.7 °C 57.3 °F /  14.1 °C 29.92 in /  1013.1 hPa NE 1.0 mph /  1.6 km/h 2.3 mph /  3.7 km/h 96 % 0.00 in /  0 mm
07:28 58.5 °F /  14.7 °C 57.1 °F /  13.9 °C 29.92 in /  1013.1 hPa ENE 1.2 mph /  1.9 km/h 3.5 mph /  5.6 km/h 95 % 0.00 in /  0 mm
07:33 58.6 °F /  14.8 °C 57.2 °F /  14 °C 29.92 in /  1013.1 hPa NNE 1.3 mph /  2.1 km/h 2.3 mph /  3.7 km/h 95 % 0.00 in /  0 mm
07:38 58.9 °F /  14.9 °C 57.2 °F /  14 °C 29.92 in /  1013.1 hPa NE 1.0 mph /  1.6 km/h 3.5 mph /  5.6 km/h 94 % 0.00 in /  0 mm
07:43 58.9 °F /  14.9 °C 56.9 °F /  13.8 °C 29.92 in /  1013.1 hPa ENE 1.9 mph /  3.1 km/h 3.5 mph /  5.6 km/h 93 % 0.00 in /  0 mm
07:48 58.9 °F /  14.9 °C 56.6 °F /  13.7 °C 29.92 in /  1013.1 hPa North 1.4 mph /  2.3 km/h 5.8 mph /  9.3 km/h 92 % 0.00 in /  0 mm
07:53 58.8 °F /  14.9 °C 55.9 °F /  13.3 °C 29.92 in /  1013.1 hPa NNE 1.4 mph /  2.3 km/h 4.6 mph /  7.4 km/h 90 % 0.00 in /  0 mm
07:58 58.7 °F /  14.8 °C 55.5 °F /  13.1 °C 29.92 in /  1013.1 hPa NNE 0.5 mph /  0.8 km/h 2.3 mph /  3.7 km/h 89 % 0.00 in /  0 mm
08:03 58.7 °F /  14.8 °C 55.5 °F /  13.1 °C 29.92 in /  1013.1 hPa NNE 1.6 mph /  2.6 km/h 3.5 mph /  5.6 km/h 89 % 0.00 in /  0 mm
08:08 58.8 °F /  14.9 °C 55.6 °F /  13.1 °C 29.92 in /  1013.1 hPa NE 0.4 mph /  0.6 km/h 2.3 mph /  3.7 km/h 89 % 0.00 in /  0 mm
08:13 58.8 °F /  14.9 °C 55.6 °F /  13.1 °C 29.92 in /  1013.1 hPa North 1.5 mph /  2.4 km/h 3.5 mph /  5.6 km/h 89 % 0.00 in /  0 mm
08:18 58.8 °F /  14.9 °C 55.6 °F /  13.1 °C 29.92 in /  1013.1 hPa NE 0.3 mph /  0.5 km/h 3.5 mph /  5.6 km/h 89 % 0.00 in /  0 mm
08:23 58.7 °F /  14.8 °C 55.2 °F /  12.9 °C 29.92 in /  1013.1 hPa NNE 3.3 mph /  5.3 km/h 4.6 mph /  7.4 km/h 88 % 0.00 in /  0 mm
08:28 58.6 °F /  14.8 °C 54.7 °F /  12.6 °C 29.92 in /  1013.1 hPa NNE 2.1 mph /  3.4 km/h 4.6 mph /  7.4 km/h 87 % 0.00 in /  0 mm
08:33 58.4 °F /  14.7 °C 54.5 °F /  12.5 °C 29.93 in /  1013.4 hPa North 3.2 mph /  5.1 km/h 3.5 mph /  5.6 km/h 87 % 0.00 in /  0 mm
08:39 58.4 °F /  14.7 °C 54.5 °F /  12.5 °C 29.92 in /  1013.1 hPa ENE 2.5 mph /  4 km/h 5.8 mph /  9.3 km/h 87 % 0.00 in /  0 mm
08:44 58.4 °F /  14.7 °C 54.9 °F /  12.7 °C 29.92 in /  1013.1 hPa North 2.8 mph /  4.5 km/h 4.6 mph /  7.4 km/h 88 % 0.00 in /  0 mm
08:49 58.3 °F /  14.6 °C 54.4 °F /  12.4 °C 29.92 in /  1013.1 hPa ENE 2.7 mph /  4.3 km/h 4.0 mph /  6.4 km/h 87 % 0.00 in /  0 mm
08:54 58.3 °F /  14.6 °C 54.8 °F /  12.7 °C 29.92 in /  1013.1 hPa NE 1.9 mph /  3.1 km/h 3.5 mph /  5.6 km/h 88 % 0.00 in /  0 mm
08:59 58.4 °F /  14.7 °C 54.5 °F /  12.5 °C 29.92 in /  1013.1 hPa NE 1.8 mph /  2.9 km/h 4.6 mph /  7.4 km/h 87 % 0.00 in /  0 mm
09:04 58.5 °F /  14.7 °C 55.0 °F /  12.8 °C 29.91 in /  1012.8 hPa ENE 2.6 mph /  4.2 km/h 4.0 mph /  6.4 km/h 88 % 0.00 in /  0 mm
09:09 58.6 °F /  14.8 °C 54.7 °F /  12.6 °C 29.92 in /  1013.1 hPa ENE 0.5 mph /  0.8 km/h 2.3 mph /  3.7 km/h 87 % 0.00 in /  0 mm
09:14 58.7 °F /  14.8 °C 54.8 °F /  12.7 °C 29.91 in /  1012.8 hPa ENE 0.9 mph /  1.4 km/h 2.3 mph /  3.7 km/h 87 % 0.00 in /  0 mm
09:19 58.8 °F /  14.9 °C 54.9 °F /  12.7 °C 29.92 in /  1013.1 hPa NNE 1.7 mph /  2.7 km/h 3.5 mph /  5.6 km/h 87 % 0.00 in /  0 mm
09:24 59.1 °F /  15.1 °C 55.2 °F /  12.9 °C 29.92 in /  1013.1 hPa NNE 1.1 mph /  1.8 km/h 3.5 mph /  5.6 km/h 87 % 0.00 in /  0 mm
09:29 59.2 °F /  15.1 °C 54.4 °F /  12.4 °C 29.91 in /  1012.8 hPa NE 1.6 mph /  2.6 km/h 3.0 mph /  4.8 km/h 84 % 0.00 in /  0 mm
09:34 59.4 °F /  15.2 °C 54.9 °F /  12.7 °C 29.91 in /  1012.8 hPa NNE 1.4 mph /  2.3 km/h 4.0 mph /  6.4 km/h 85 % 0.00 in /  0 mm
09:39 59.6 °F /  15.3 °C 55.1 °F /  12.8 °C 29.91 in /  1012.8 hPa NNE 1.0 mph /  1.6 km/h 2.3 mph /  3.7 km/h 85 % 0.00 in /  0 mm
09:44 59.8 °F /  15.4 °C 55.0 °F /  12.8 °C 29.91 in /  1012.8 hPa NE 0.5 mph /  0.8 km/h 2.3 mph /  3.7 km/h 84 % 0.00 in /  0 mm
09:49 59.9 °F /  15.5 °C 55.1 °F /  12.8 °C 29.91 in /  1012.8 hPa Calm   1.2 mph /  1.9 km/h 84 % 0.00 in /  0 mm
09:54 60.2 °F /  15.7 °C 55.3 °F /  12.9 °C 29.91 in /  1012.8 hPa NNE 0.3 mph /  0.5 km/h 1.2 mph /  1.9 km/h 84 % 0.00 in /  0 mm
09:59 60.4 °F /  15.8 °C 55.5 °F /  13.1 °C 29.91 in /  1012.8 hPa North 1.3 mph /  2.1 km/h 3.5 mph /  5.6 km/h 84 % 0.00 in /  0 mm
10:04 60.5 °F /  15.8 °C 55.3 °F /  12.9 °C 29.91 in /  1012.8 hPa NNE 0.8 mph /  1.3 km/h 2.3 mph /  3.7 km/h 83 % 0.00 in /  0 mm
10:09 60.7 °F /  15.9 °C 55.8 °F /  13.2 °C 29.90 in /  1012.4 hPa North 0.6 mph /  1 km/h 2.0 mph /  3.2 km/h 84 % 0.00 in /  0 mm
10:14 61.0 °F /  16.1 °C 56.1 °F /  13.4 °C 29.91 in /  1012.8 hPa ENE 0.4 mph /  0.6 km/h 3.0 mph /  4.8 km/h 84 % 0.00 in /  0 mm
10:19 61.3 °F /  16.3 °C 55.4 °F /  13 °C 29.91 in /  1012.8 hPa NE 1.1 mph /  1.8 km/h 3.5 mph /  5.6 km/h 81 % 0.00 in /  0 mm
10:24 61.8 °F /  16.6 °C 56.2 °F /  13.4 °C 29.91 in /  1012.8 hPa North 0.4 mph /  0.6 km/h 2.3 mph /  3.7 km/h 82 % 0.00 in /  0 mm
10:29 62.2 °F /  16.8 °C 56.0 °F /  13.3 °C 29.91 in /  1012.8 hPa NW 1.5 mph /  2.4 km/h 2.3 mph /  3.7 km/h 80 % 0.00 in /  0 mm
10:34 62.5 °F /  16.9 °C 55.5 °F /  13.1 °C 29.91 in /  1012.8 hPa NNE 1.7 mph /  2.7 km/h 2.3 mph /  3.7 km/h 78 % 0.00 in /  0 mm
10:39 62.7 °F /  17.1 °C 55.7 °F /  13.2 °C 29.91 in /  1012.8 hPa NNE 0.1 mph /  0.2 km/h 1.0 mph /  1.6 km/h 78 % 0.00 in /  0 mm
10:44 62.7 °F /  17.1 °C 55.7 °F /  13.2 °C 29.91 in /  1012.8 hPa Calm   1.2 mph /  1.9 km/h 78 % 0.00 in /  0 mm
10:49 62.9 °F /  17.2 °C 54.9 °F /  12.7 °C 29.92 in /  1013.1 hPa NNE 0.2 mph /  0.3 km/h 1.2 mph /  1.9 km/h 75 % 0.00 in /  0 mm
10:54 62.9 °F /  17.2 °C 54.9 °F /  12.7 °C 29.92 in /  1013.1 hPa Calm   1.2 mph /  1.9 km/h 75 % 0.00 in /  0 mm
10:59 62.9 °F /  17.2 °C 53.7 °F /  12.1 °C 29.92 in /  1013.1 hPa NNE 1.2 mph /  1.9 km/h 2.3 mph /  3.7 km/h 72 % 0.00 in /  0 mm
11:04 63.0 °F /  17.2 °C 54.6 °F /  12.6 °C 29.91 in /  1012.8 hPa Calm     74 % 0.00 in /  0 mm
11:09 63.1 °F /  17.3 °C 54.3 °F /  12.4 °C 29.91 in /  1012.8 hPa Calm   2.3 mph /  3.7 km/h 73 % 0.00 in /  0 mm
11:14 63.3 °F /  17.4 °C 55.2 °F /  12.9 °C 29.91 in /  1012.8 hPa NNE 0.1 mph /  0.2 km/h 1.0 mph /  1.6 km/h 75 % 0.00 in /  0 mm
11:19 63.6 °F /  17.6 °C 54.4 °F /  12.4 °C 29.91 in /  1012.8 hPa Calm   2.3 mph /  3.7 km/h 72 % 0.00 in /  0 mm
11:24 64.0 °F /  17.8 °C 56.6 °F /  13.7 °C 29.91 in /  1012.8 hPa ENE 1.5 mph /  2.4 km/h 3.5 mph /  5.6 km/h 77 % 0.00 in /  0 mm
11:26 64.2 °F /  17.9 °C 56.1 °F /  13.4 °C 29.91 in /  1012.8 hPa ENE 1.1 mph /  1.8 km/h 2.3 mph /  3.7 km/h 75 % 0.00 in /  0 mm
11:31 64.4 °F /  18 °C 54.4 °F /  12.4 °C 29.91 in /  1012.8 hPa ENE 0.7 mph /  1.1 km/h 2.3 mph /  3.7 km/h 70 % 0.00 in /  0 mm
11:36 64.5 °F /  18.1 °C 54.5 °F /  12.5 °C 29.90 in /  1012.4 hPa ENE 0.3 mph /  0.5 km/h 2.3 mph /  3.7 km/h 70 % 0.00 in /  0 mm
11:41 64.5 °F /  18.1 °C 54.9 °F /  12.7 °C 29.90 in /  1012.4 hPa ENE 0.4 mph /  0.6 km/h 2.0 mph /  3.2 km/h 71 % 0.00 in /  0 mm
11:46 64.5 °F /  18.1 °C 56.0 °F /  13.3 °C 29.89 in /  1012.1 hPa ENE 0.6 mph /  1 km/h 1.0 mph /  1.6 km/h 74 % 0.00 in /  0 mm
11:51 64.4 °F /  18 °C 54.8 °F /  12.7 °C 29.89 in /  1012.1 hPa ENE 0.3 mph /  0.5 km/h 1.2 mph /  1.9 km/h 71 % 0.00 in /  0 mm
11:56 64.3 °F /  17.9 °C 54.7 °F /  12.6 °C 29.89 in /  1012.1 hPa Calm     71 % 0.00 in /  0 mm
12:01 64.1 °F /  17.8 °C 55.3 °F /  12.9 °C 29.89 in /  1012.1 hPa ENE 0.1 mph /  0.2 km/h 1.0 mph /  1.6 km/h 73 % 0.00 in /  0 mm
12:06 63.9 °F /  17.7 °C 54.3 °F /  12.4 °C 29.89 in /  1012.1 hPa Calm     71 % 0.00 in /  0 mm
12:11 64.0 °F /  17.8 °C 55.2 °F /  12.9 °C 29.88 in /  1011.7 hPa ENE 0.4 mph /  0.6 km/h 1.0 mph /  1.6 km/h 73 % 0.00 in /  0 mm
12:16 64.1 °F /  17.8 °C 55.3 °F /  12.9 °C 29.89 in /  1012.1 hPa ENE 0.4 mph /  0.6 km/h 1.0 mph /  1.6 km/h 73 % 0.00 in /  0 mm
12:21 64.2 °F /  17.9 °C 55.4 °F /  13 °C 29.89 in /  1012.1 hPa ENE 0.4 mph /  0.6 km/h 1.2 mph /  1.9 km/h 73 % 0.00 in /  0 mm
12:26 64.3 °F /  17.9 °C 55.1 °F /  12.8 °C 29.89 in /  1012.1 hPa Calm     72 % 0.00 in /  0 mm
12:31 64.7 °F /  18.2 °C 55.5 °F /  13.1 °C 29.89 in /  1012.1 hPa Calm     72 % 0.00 in /  0 mm
12:37 65.2 °F /  18.4 °C 57.1 °F /  13.9 °C 29.89 in /  1012.1 hPa Calm     75 % 0.00 in /  0 mm
12:42 65.6 °F /  18.7 °C 55.9 °F /  13.3 °C 29.89 in /  1012.1 hPa Calm   1.2 mph /  1.9 km/h 71 % 0.00 in /  0 mm
12:47 65.8 °F /  18.8 °C 56.1 °F /  13.4 °C 29.88 in /  1011.7 hPa Calm     71 % 0.00 in /  0 mm
12:52 66.2 °F /  19 °C 56.5 °F /  13.6 °C 29.88 in /  1011.7 hPa Calm   1.2 mph /  1.9 km/h 71 % 0.00 in /  0 mm
12:57 66.4 °F /  19.1 °C 55.1 °F /  12.8 °C 29.88 in /  1011.7 hPa ENE 0.5 mph /  0.8 km/h 2.3 mph /  3.7 km/h 67 % 0.00 in /  0 mm
13:02 66.5 °F /  19.2 °C 55.6 °F /  13.1 °C 29.88 in /  1011.7 hPa North 0.4 mph /  0.6 km/h 2.3 mph /  3.7 km/h 68 % 0.00 in /  0 mm
13:07 66.7 °F /  19.3 °C 55.0 °F /  12.8 °C 29.88 in /  1011.7 hPa Calm   1.2 mph /  1.9 km/h 66 % 0.00 in /  0 mm
13:12 66.9 °F /  19.4 °C 56.0 °F /  13.3 °C 29.87 in /  1011.4 hPa NNW 0.2 mph /  0.3 km/h 3.5 mph /  5.6 km/h 68 % 0.00 in /  0 mm
13:17 67.1 °F /  19.5 °C 56.2 °F /  13.4 °C 29.87 in /  1011.4 hPa NNW 1.7 mph /  2.7 km/h 2.3 mph /  3.7 km/h 68 % 0.00 in /  0 mm
13:22 67.2 °F /  19.6 °C 55.5 °F /  13.1 °C 29.87 in /  1011.4 hPa NNW 0.3 mph /  0.5 km/h 1.2 mph /  1.9 km/h 66 % 0.00 in /  0 mm
13:27 67.4 °F /  19.7 °C 56.1 °F /  13.4 °C 29.87 in /  1011.4 hPa Calm   2.3 mph /  3.7 km/h 67 % 0.00 in /  0 mm
13:32 67.5 °F /  19.7 °C 54.5 °F /  12.5 °C 29.86 in /  1011.1 hPa NNW 0.5 mph /  0.8 km/h 1.2 mph /  1.9 km/h 63 % 0.00 in /  0 mm
13:37 67.7 °F /  19.8 °C 55.9 °F /  13.3 °C 29.86 in /  1011.1 hPa NNW 0.4 mph /  0.6 km/h   66 % 0.00 in /  0 mm
13:42 67.9 °F /  19.9 °C 55.7 °F /  13.2 °C 29.86 in /  1011.1 hPa Calm     65 % 0.00 in /  0 mm
13:47 68.0 °F /  20 °C 55.4 °F /  13 °C 29.86 in /  1011.1 hPa NNW 0.1 mph /  0.2 km/h 1.2 mph /  1.9 km/h 64 % 0.00 in /  0 mm
13:49 68.1 °F /  20.1 °C 56.3 °F /  13.5 °C 29.86 in /  1011.1 hPa NNW 0.1 mph /  0.2 km/h 1.2 mph /  1.9 km/h 66 % 0.00 in /  0 mm
13:54 68.3 °F /  20.2 °C 57.3 °F /  14.1 °C 29.86 in /  1011.1 hPa Calm     68 % 0.00 in /  0 mm
13:59 68.4 °F /  20.2 °C 57.0 °F /  13.9 °C 29.86 in /  1011.1 hPa NNW 0.1 mph /  0.2 km/h 1.0 mph /  1.6 km/h 67 % 0.00 in /  0 mm
14:04 68.5 °F /  20.3 °C 55.0 °F /  12.8 °C 29.86 in /  1011.1 hPa NW 0.7 mph /  1.1 km/h 3.5 mph /  5.6 km/h 62 % 0.00 in /  0 mm
14:09 68.6 °F /  20.3 °C 55.9 °F /  13.3 °C 29.86 in /  1011.1 hPa Calm     64 % 0.00 in /  0 mm
14:14 68.7 °F /  20.4 °C 56.5 °F /  13.6 °C 29.86 in /  1011.1 hPa NW 0.8 mph /  1.3 km/h 2.3 mph /  3.7 km/h 65 % 0.00 in /  0 mm
14:19 68.8 °F /  20.4 °C 57.0 °F /  13.9 °C 29.86 in /  1011.1 hPa NW 0.9 mph /  1.4 km/h 1.2 mph /  1.9 km/h 66 % 0.00 in /  0 mm
14:24 69.0 °F /  20.6 °C 56.3 °F /  13.5 °C 29.85 in /  1010.7 hPa SW 0.4 mph /  0.6 km/h 2.3 mph /  3.7 km/h 64 % 0.00 in /  0 mm
14:29 69.2 °F /  20.7 °C 56.5 °F /  13.6 °C 29.85 in /  1010.7 hPa Calm     64 % 0.00 in /  0 mm
14:34 69.4 °F /  20.8 °C 56.3 °F /  13.5 °C 29.85 in /  1010.7 hPa Calm   1.2 mph /  1.9 km/h 63 % 0.00 in /  0 mm
14:39 69.6 °F /  20.9 °C 55.1 °F /  12.8 °C 29.85 in /  1010.7 hPa WSW 1.9 mph /  3.1 km/h 3.0 mph /  4.8 km/h 60 % 0.00 in /  0 mm
14:44 69.9 °F /  21.1 °C 56.3 °F /  13.5 °C 29.85 in /  1010.7 hPa Calm     62 % 0.00 in /  0 mm
14:49 70.2 °F /  21.2 °C 55.7 °F /  13.2 °C 29.84 in /  1010.4 hPa Calm   1.2 mph /  1.9 km/h 60 % 0.00 in /  0 mm
14:54 70.5 °F /  21.4 °C 56.9 °F /  13.8 °C 29.84 in /  1010.4 hPa West 2.0 mph /  3.2 km/h 3.5 mph /  5.6 km/h 62 % 0.00 in /  0 mm
14:59 70.8 °F /  21.6 °C 54.8 °F /  12.7 °C 29.84 in /  1010.4 hPa WSW 1.6 mph /  2.6 km/h 4.6 mph /  7.4 km/h 57 % 0.00 in /  0 mm
15:04 71.1 °F /  21.7 °C 55.6 °F /  13.1 °C 29.84 in /  1010.4 hPa NW 1.5 mph /  2.4 km/h 4.6 mph /  7.4 km/h 58 % 0.00 in /  0 mm
15:09 71.2 °F /  21.8 °C 56.1 °F /  13.4 °C 29.84 in /  1010.4 hPa West 1.3 mph /  2.1 km/h 3.5 mph /  5.6 km/h 59 % 0.00 in /  0 mm
15:15 71.2 °F /  21.8 °C 54.2 °F /  12.3 °C 29.84 in /  1010.4 hPa WSW 3.2 mph /  5.1 km/h 4.0 mph /  6.4 km/h 55 % 0.00 in /  0 mm
15:20 71.2 °F /  21.8 °C 54.7 °F /  12.6 °C 29.84 in /  1010.4 hPa WSW 0.1 mph /  0.2 km/h 1.2 mph /  1.9 km/h 56 % 0.00 in /  0 mm
15:25 71.0 °F /  21.7 °C 55.5 °F /  13.1 °C 29.84 in /  1010.4 hPa Calm   1.2 mph /  1.9 km/h 58 % 0.00 in /  0 mm
15:30 70.9 °F /  21.6 °C 55.4 °F /  13 °C 29.83 in /  1010 hPa SW 0.2 mph /  0.3 km/h 3.5 mph /  5.6 km/h 58 % 0.00 in /  0 mm
15:35 70.8 °F /  21.6 °C 54.8 °F /  12.7 °C 29.83 in /  1010 hPa SW 0.3 mph /  0.5 km/h 2.3 mph /  3.7 km/h 57 % 0.00 in /  0 mm
15:40 70.7 °F /  21.5 °C 56.1 °F /  13.4 °C 29.83 in /  1010 hPa SW 0.6 mph /  1 km/h 2.3 mph /  3.7 km/h 60 % 0.00 in /  0 mm
15:45 70.6 °F /  21.4 °C 55.6 °F /  13.1 °C 29.83 in /  1010 hPa WSW 2.2 mph /  3.5 km/h 3.5 mph /  5.6 km/h 59 % 0.00 in /  0 mm
15:50 70.5 °F /  21.4 °C 54.0 °F /  12.2 °C 29.83 in /  1010 hPa WSW 0.3 mph /  0.5 km/h 3.5 mph /  5.6 km/h 56 % 0.00 in /  0 mm
15:55 70.5 °F /  21.4 °C 55.0 °F /  12.8 °C 29.82 in /  1009.7 hPa WSW 1.4 mph /  2.3 km/h 2.3 mph /  3.7 km/h 58 % 0.00 in /  0 mm
16:00 70.4 °F /  21.3 °C 56.3 °F /  13.5 °C 29.82 in /  1009.7 hPa WSW 0.7 mph /  1.1 km/h 2.3 mph /  3.7 km/h 61 % 0.00 in /  0 mm
16:05 70.4 °F /  21.3 °C 55.8 °F /  13.2 °C 29.82 in /  1009.7 hPa WSW 0.3 mph /  0.5 km/h 1.2 mph /  1.9 km/h 60 % 0.00 in /  0 mm
16:10 70.4 °F /  21.3 °C 55.8 °F /  13.2 °C 29.82 in /  1009.7 hPa West 1.0 mph /  1.6 km/h 4.0 mph /  6.4 km/h 60 % 0.00 in /  0 mm
16:15 70.3 °F /  21.3 °C 54.8 °F /  12.7 °C 29.82 in /  1009.7 hPa West 2.0 mph /  3.2 km/h 5.0 mph /  8 km/h 58 % 0.00 in /  0 mm
16:20 70.2 °F /  21.2 °C 55.7 °F /  13.2 °C 29.82 in /  1009.7 hPa West 3.0 mph /  4.8 km/h 4.0 mph /  6.4 km/h 60 % 0.00 in /  0 mm
16:25 70.1 °F /  21.2 °C 55.6 °F /  13.1 °C 29.82 in /  1009.7 hPa West 1.0 mph /  1.6 km/h 2.0 mph /  3.2 km/h 60 % 0.00 in /  0 mm
16:30 70.1 °F /  21.2 °C 55.6 °F /  13.1 °C 29.82 in /  1009.7 hPa West 1.0 mph /  1.6 km/h 4.0 mph /  6.4 km/h 60 % 0.00 in /  0 mm
16:35 70.1 °F /  21.2 °C 55.6 °F /  13.1 °C 29.82 in /  1009.7 hPa Calm   2.0 mph /  3.2 km/h 60 % 0.00 in /  0 mm
16:40 70.1 °F /  21.2 °C 55.1 °F /  12.8 °C 29.82 in /  1009.7 hPa WSW 1.0 mph /  1.6 km/h 5.0 mph /  8 km/h 59 % 0.00 in /  0 mm
16:45 70.0 °F /  21.1 °C 55.5 °F /  13.1 °C 29.82 in /  1009.7 hPa WSW 2.0 mph /  3.2 km/h 5.0 mph /  8 km/h 60 % 0.00 in /  0 mm
16:50 70.0 °F /  21.1 °C 55.0 °F /  12.8 °C 29.82 in /  1009.7 hPa WSW 1.0 mph /  1.6 km/h 3.0 mph /  4.8 km/h 59 % 0.00 in /  0 mm
16:55 69.9 °F /  21.1 °C 55.4 °F /  13 °C 29.82 in /  1009.7 hPa West 1.0 mph /  1.6 km/h 3.0 mph /  4.8 km/h 60 % 0.00 in /  0 mm
17:05 69.7 °F /  20.9 °C 55.2 °F /  12.9 °C 29.81 in /  1009.4 hPa WNW 1.0 mph /  1.6 km/h 3.0 mph /  4.8 km/h 60 % 0.00 in /  0 mm
17:10 69.6 °F /  20.9 °C 55.1 °F /  12.8 °C 29.81 in /  1009.4 hPa Calm   3.0 mph /  4.8 km/h 60 % 0.00 in /  0 mm
17:18 69.4 °F /  20.8 °C 54.9 °F /  12.7 °C 29.81 in /  1009.4 hPa WNW 2.1 mph /  3.4 km/h 3.5 mph /  5.6 km/h 60 % 0.00 in /  0 mm
17:23 69.3 °F /  20.7 °C 54.4 °F /  12.4 °C 29.81 in /  1009.4 hPa WNW 0.1 mph /  0.2 km/h 2.3 mph /  3.7 km/h 59 % 0.00 in /  0 mm
17:28 69.2 °F /  20.7 °C 54.7 °F /  12.6 °C 29.80 in /  1009 hPa WNW 0.1 mph /  0.2 km/h 1.2 mph /  1.9 km/h 60 % 0.00 in /  0 mm
17:33 69.1 °F /  20.6 °C 55.1 °F /  12.8 °C 29.80 in /  1009 hPa West 0.2 mph /  0.3 km/h 3.5 mph /  5.6 km/h 61 % 0.00 in /  0 mm
17:38 69.0 °F /  20.6 °C 55.0 °F /  12.8 °C 29.80 in /  1009 hPa West 0.1 mph /  0.2 km/h 1.2 mph /  1.9 km/h 61 % 0.00 in /  0 mm
17:43 68.9 °F /  20.5 °C 54.4 °F /  12.4 °C 29.80 in /  1009 hPa West 0.3 mph /  0.5 km/h 1.2 mph /  1.9 km/h 60 % 0.00 in /  0 mm
17:48 68.8 °F /  20.4 °C 55.2 °F /  12.9 °C 29.80 in /  1009 hPa WNW 0.2 mph /  0.3 km/h 2.0 mph /  3.2 km/h 62 % 0.00 in /  0 mm
17:53 68.7 °F /  20.4 °C 55.2 °F /  12.9 °C 29.80 in /  1009 hPa Calm   2.3 mph /  3.7 km/h 62 % 0.00 in /  0 mm
17:58 68.6 °F /  20.3 °C 55.9 °F /  13.3 °C 29.80 in /  1009 hPa Calm     64 % 0.00 in /  0 mm
18:03 68.5 °F /  20.3 °C 55.8 °F /  13.2 °C 29.79 in /  1008.7 hPa Calm     64 % 0.00 in /  0 mm
18:08 68.4 °F /  20.2 °C 55.7 °F /  13.2 °C 29.79 in /  1008.7 hPa Calm     64 % 0.00 in /  0 mm
18:13 68.3 °F /  20.2 °C 56.1 °F /  13.4 °C 29.80 in /  1009 hPa WNW 0.1 mph /  0.2 km/h 1.0 mph /  1.6 km/h 65 % 0.00 in /  0 mm
18:19 68.2 °F /  20.1 °C 56.0 °F /  13.3 °C 29.80 in /  1009 hPa Calm     65 % 0.00 in /  0 mm
18:24 68.1 °F /  20.1 °C 55.5 °F /  13.1 °C 29.79 in /  1008.7 hPa Calm     64 % 0.00 in /  0 mm
18:29 68.1 °F /  20.1 °C 55.9 °F /  13.3 °C 29.79 in /  1008.7 hPa Calm   1.2 mph /  1.9 km/h 65 % 0.00 in /  0 mm
18:34 68.1 °F /  20.1 °C 55.5 °F /  13.1 °C 29.79 in /  1008.7 hPa Calm     64 % 0.00 in /  0 mm
18:39 68.0 °F /  20 °C 55.8 °F /  13.2 °C 29.79 in /  1008.7 hPa Calm     65 % 0.00 in /  0 mm
18:44 67.9 °F /  19.9 °C 56.1 °F /  13.4 °C 29.79 in /  1008.7 hPa Calm     66 % 0.00 in /  0 mm
18:49 67.8 °F /  19.9 °C 55.6 °F /  13.1 °C 29.79 in /  1008.7 hPa Calm     65 % 0.00 in /  0 mm
18:54 67.8 °F /  19.9 °C 55.6 °F /  13.1 °C 29.79 in /  1008.7 hPa Calm     65 % 0.00 in /  0 mm
18:55 67.7 °F /  19.8 °C 55.5 °F /  13.1 °C 29.78 in /  1008.4 hPa Calm     65 % 0.00 in /  0 mm
19:00 67.6 °F /  19.8 °C 55.8 °F /  13.2 °C 29.79 in /  1008.7 hPa Calm     66 % 0.00 in /  0 mm
19:05 67.6 °F /  19.8 °C 56.2 °F /  13.4 °C 29.79 in /  1008.7 hPa Calm     67 % 0.00 in /  0 mm
19:10 67.5 °F /  19.7 °C 56.6 °F /  13.7 °C 29.79 in /  1008.7 hPa Calm     68 % 0.00 in /  0 mm
19:15 67.4 °F /  19.7 °C 56.9 °F /  13.8 °C 29.79 in /  1008.7 hPa Calm     69 % 0.00 in /  0 mm
19:20 67.2 °F /  19.6 °C 56.7 °F /  13.7 °C 29.79 in /  1008.7 hPa Calm     69 % 0.00 in /  0 mm
19:25 67.1 °F /  19.5 °C 56.6 °F /  13.7 °C 29.80 in /  1009 hPa Calm     69 % 0.00 in /  0 mm
19:30 66.9 °F /  19.4 °C 56.4 °F /  13.6 °C 29.79 in /  1008.7 hPa Calm     69 % 0.00 in /  0 mm
19:35 66.8 °F /  19.3 °C 57.1 °F /  13.9 °C 29.79 in /  1008.7 hPa Calm     71 % 0.00 in /  0 mm
19:40 66.6 °F /  19.2 °C 57.3 °F /  14.1 °C 29.79 in /  1008.7 hPa Calm     72 % 0.00 in /  0 mm
19:45 66.4 °F /  19.1 °C 57.1 °F /  13.9 °C 29.79 in /  1008.7 hPa Calm     72 % 0.00 in /  0 mm
19:50 66.2 °F /  19 °C 56.9 °F /  13.8 °C 29.79 in /  1008.7 hPa Calm     72 % 0.00 in /  0 mm
19:55 66.0 °F /  18.9 °C 57.5 °F /  14.2 °C 29.79 in /  1008.7 hPa Calm     74 % 0.00 in /  0 mm
20:01 65.8 °F /  18.8 °C 57.3 °F /  14.1 °C 29.79 in /  1008.7 hPa Calm     74 % 0.00 in /  0 mm
20:06 65.6 °F /  18.7 °C 57.1 °F /  13.9 °C 29.80 in /  1009 hPa Calm     74 % 0.00 in /  0 mm
20:11 65.4 °F /  18.6 °C 56.9 °F /  13.8 °C 29.79 in /  1008.7 hPa Calm     74 % 0.00 in /  0 mm
20:16 65.1 °F /  18.4 °C 56.6 °F /  13.7 °C 29.79 in /  1008.7 hPa Calm   1.0 mph /  1.6 km/h 74 % 0.00 in /  0 mm
20:21 64.9 °F /  18.3 °C 56.0 °F /  13.3 °C 29.79 in /  1008.7 hPa Calm     73 % 0.00 in /  0 mm
20:26 64.6 °F /  18.1 °C 55.7 °F /  13.2 °C 29.79 in /  1008.7 hPa Calm   1.0 mph /  1.6 km/h 73 % 0.00 in /  0 mm
20:31 64.4 °F /  18 °C 55.2 °F /  12.9 °C 29.79 in /  1008.7 hPa Calm     72 % 0.00 in /  0 mm
20:36 64.2 °F /  17.9 °C 55.0 °F /  12.8 °C 29.79 in /  1008.7 hPa Calm     72 % 0.00 in /  0 mm
20:41 64.0 °F /  17.8 °C 55.2 °F /  12.9 °C 29.79 in /  1008.7 hPa Calm     73 % 0.00 in /  0 mm
20:46 63.8 °F /  17.7 °C 54.6 °F /  12.6 °C 29.79 in /  1008.7 hPa WNW 0.1 mph /  0.2 km/h 1.2 mph /  1.9 km/h 72 % 0.00 in /  0 mm
20:51 63.6 °F /  17.6 °C 54.8 °F /  12.7 °C 29.79 in /  1008.7 hPa Calm     73 % 0.00 in /  0 mm
20:56 63.4 °F /  17.4 °C 54.6 °F /  12.6 °C 29.79 in /  1008.7 hPa Calm     73 % 0.00 in /  0 mm
21:01 63.2 °F /  17.3 °C 54.4 °F /  12.4 °C 29.79 in /  1008.7 hPa Calm     73 % 0.00 in /  0 mm
21:06 63.1 °F /  17.3 °C 54.3 °F /  12.4 °C 29.79 in /  1008.7 hPa Calm     73 % 0.00 in /  0 mm
21:11 62.9 °F /  17.2 °C 53.7 °F /  12.1 °C 29.79 in /  1008.7 hPa Calm     72 % 0.00 in /  0 mm
21:16 62.7 °F /  17.1 °C 53.9 °F /  12.2 °C 29.79 in /  1008.7 hPa Calm     73 % 0.00 in /  0 mm
21:21 62.6 °F /  17 °C 53.8 °F /  12.1 °C 29.79 in /  1008.7 hPa Calm     73 % 0.00 in /  0 mm
21:26 62.5 °F /  16.9 °C 53.7 °F /  12.1 °C 29.80 in /  1009 hPa Calm     73 % 0.00 in /  0 mm
21:31 62.3 °F /  16.8 °C 53.5 °F /  11.9 °C 29.80 in /  1009 hPa Calm     73 % 0.00 in /  0 mm
21:36 62.2 °F /  16.8 °C 53.4 °F /  11.9 °C 29.80 in /  1009 hPa Calm     73 % 0.00 in /  0 mm
21:41 62.1 °F /  16.7 °C 53.3 °F /  11.8 °C 29.80 in /  1009 hPa Calm     73 % 0.00 in /  0 mm
21:46 62.0 °F /  16.7 °C 53.2 °F /  11.8 °C 29.80 in /  1009 hPa Calm     73 % 0.00 in /  0 mm
21:51 61.8 °F /  16.6 °C 53.1 °F /  11.7 °C 29.80 in /  1009 hPa Calm     73 % 0.00 in /  0 mm
21:56 61.6 °F /  16.4 °C 52.9 °F /  11.6 °C 29.80 in /  1009 hPa Calm     73 % 0.00 in /  0 mm
22:01 61.4 °F /  16.3 °C 52.7 °F /  11.5 °C 29.80 in /  1009 hPa Calm     73 % 0.00 in /  0 mm
22:06 61.3 °F /  16.3 °C 52.6 °F /  11.4 °C 29.80 in /  1009 hPa Calm     73 % 0.00 in /  0 mm
22:11 61.3 °F /  16.3 °C 52.9 °F /  11.6 °C 29.80 in /  1009 hPa West 0.7 mph /  1.1 km/h 2.3 mph /  3.7 km/h 74 % 0.00 in /  0 mm
22:16 61.2 °F /  16.2 °C 52.8 °F /  11.6 °C 29.80 in /  1009 hPa West 0.4 mph /  0.6 km/h 2.3 mph /  3.7 km/h 74 % 0.00 in /  0 mm
22:21 61.1 °F /  16.2 °C 52.7 °F /  11.5 °C 29.80 in /  1009 hPa Calm   1.2 mph /  1.9 km/h 74 % 0.00 in /  0 mm
22:26 61.0 °F /  16.1 °C 52.7 °F /  11.5 °C 29.80 in /  1009 hPa West 0.4 mph /  0.6 km/h 1.2 mph /  1.9 km/h 74 % 0.00 in /  0 mm
22:31 60.9 °F /  16.1 °C 52.2 °F /  11.2 °C 29.80 in /  1009 hPa Calm   1.2 mph /  1.9 km/h 73 % 0.00 in /  0 mm
22:36 60.7 °F /  15.9 °C 52.0 °F /  11.1 °C 29.80 in /  1009 hPa Calm     73 % 0.00 in /  0 mm
22:41 60.6 °F /  15.9 °C 51.9 °F /  11.1 °C 29.79 in /  1008.7 hPa Calm     73 % 0.00 in /  0 mm
22:46 60.4 °F /  15.8 °C 51.7 °F /  10.9 °C 29.78 in /  1008.4 hPa Calm     73 % 0.00 in /  0 mm
22:51 60.4 °F /  15.8 °C 51.7 °F /  10.9 °C 29.78 in /  1008.4 hPa West 0.2 mph /  0.3 km/h 1.2 mph /  1.9 km/h 73 % 0.00 in /  0 mm
22:56 60.3 °F /  15.7 °C 51.6 °F /  10.9 °C 29.79 in /  1008.7 hPa Calm   1.2 mph /  1.9 km/h 73 % 0.00 in /  0 mm
23:01 60.2 °F /  15.7 °C 51.5 °F /  10.8 °C 29.79 in /  1008.7 hPa Calm   1.2 mph /  1.9 km/h 73 % 0.00 in /  0 mm
23:06 60.1 °F /  15.6 °C 51.8 °F /  11 °C 29.78 in /  1008.4 hPa West 0.1 mph /  0.2 km/h 1.2 mph /  1.9 km/h 74 % 0.00 in /  0 mm
23:11 60.0 °F /  15.6 °C 51.7 °F /  10.9 °C 29.78 in /  1008.4 hPa Calm   1.2 mph /  1.9 km/h 74 % 0.00 in /  0 mm
23:16 59.9 °F /  15.5 °C 51.6 °F /  10.9 °C 29.78 in /  1008.4 hPa Calm     74 % 0.00 in /  0 mm
23:21 59.8 °F /  15.4 °C 51.5 °F /  10.8 °C 29.77 in /  1008 hPa Calm     74 % 0.00 in /  0 mm
23:26 59.6 °F /  15.3 °C 51.3 °F /  10.7 °C 29.77 in /  1008 hPa Calm   1.2 mph /  1.9 km/h 74 % 0.00 in /  0 mm
23:31 59.6 °F /  15.3 °C 51.3 °F /  10.7 °C 29.77 in /  1008 hPa Calm     74 % 0.00 in /  0 mm
23:36 59.5 °F /  15.3 °C 51.2 °F /  10.7 °C 29.77 in /  1008 hPa Calm     74 % 0.00 in /  0 mm
23:42 59.4 °F /  15.2 °C 51.5 °F /  10.8 °C 29.76 in /  1007.7 hPa Calm     75 % 0.00 in /  0 mm
23:47 59.3 °F /  15.2 °C 51.4 °F /  10.8 °C 29.76 in /  1007.7 hPa West 0.1 mph /  0.2 km/h 1.0 mph /  1.6 km/h 75 % 0.00 in /  0 mm
23:52 59.2 °F /  15.1 °C 51.3 °F /  10.7 °C 29.76 in /  1007.7 hPa Calm     75 % 0.00 in /  0 mm
23:57 59.1 °F /  15.1 °C 51.5 °F /  10.8 °C 29.76 in /  1007.7 hPa Calm     76 % 0.00 in /  0 mm
Crab Meadow Weather
Compliments of Weather Underground - 3 mb

Script developed by  Jim McMurry - jmcmurry@mwt.net Adapted for the template by  Wim van der Kuil - Leuven-Template.eu

Recycling: The U.S. is the #1 trash-producing country in the world at 1,609 pounds per person per year. This means that 5% of the world's people generate 40% of the world's waste.